Airfield :
LOGIN :

Register | Disclaimer

   EN    FR    IT 

 










Legend :    VFR   Marginal VFR   IFR   Intensive IFR   Very Intensive IFR
Visi :
Ceiling :
>= 8 km
>= 3000ft
5 to 8 km
1000 to 3000 ft
1500m to 5 km
500 to 1000 ft
800 to 1500m
200 to 500 ft
< 800m
< 200 ft
Symbols :   Thunderstorms  Fog  Heavy snow  Heavy precipitations  Wind > 20 kt
SIGMETs :     Misc.  Thunderstorms  Icing  Turbulence  Mountain Waves  Volcanic Ashes






- Airport Elevation : 913 ft


LFSX - Luxeuil

CURRENT METAR :
  • 231000Z AUTO VRB03KT 9999 FEW009 BKN014 BKN021 15/13 Q1018

EXPIRED METARs :
  • 230930Z AUTO VRB02KT 9999 BKN010/// BKN015/// OVC022/// ///TCU 14/12 Q1018
  • 230900Z AUTO VRB01KT 9999 BKN010/// BKN015/// OVC022/// ///TCU 13/12 Q1018
  • 230830Z AUTO 00000KT 9999 -RADZ BKN009/// BKN017/// BKN038/// ///CB 13/12 Q1018
  • 230800Z AUTO VRB02KT 9999 -RA FEW004 SCT054 OVC070 13/12 Q1018
  • 230730Z AUTO VRB03KT 8000 RA ////// 12/12 Q1018
  • 230700Z AUTO VRB03KT 8000 RA SCT005/// BKN050/// BKN070/// ///CB 12/11 Q1017
  • 230630Z AUTO VRB02KT 9999 -DZ FEW004/// BKN066/// OVC080/// ///CB 11/11 Q1017
  • 230600Z AUTO VRB01KT 9999 ////// 11/11 Q1017
  • 230530Z AUTO VRB02KT 9999 BKN002/// OVC007/// ///CB 10/10 Q1017

TAF TAF LFSX
Valid from the 23 at 09:00 until the 24 at 09:00 UTC


230800Z 2309/2409 22003KT 9999 SCT020
TEMPO 2309/2311 SCT005
TEMPO 2309/2318 4000 SHRA SCT020TCU
PROB40
TEMPO 2309/2317 2000 TSRA SCT020CB
BECMG 2323/2401 2000 BR BKN002
TEMPO 2401/2404 0900 FG VV///
BECMG 2404/2406 9999 NSW SCT015
TEMPO 2407/2409 4000 SHRA SCT015TCU



MET'MAP, your aeronautical weather chart ! - Copyright ORBIFLY December 2007 - Disclaimer

ORBIFLY MET'MAP TEAM :

Programming & Development : Alexandra Zaïnal
Original concept : Baudouin d'Aumeries
Technical & hardware support : Manuel Goepfert
Assistance : Marc-Olivier Méhu




SOURCES & CREDITS :

   NOAA